Aérodrome :
LOGIN :

S'inscrire | Disclaimer

   EN    FR    IT 

 










Légende :    VFR   VFR Marginal   IFR   IFR Intensif   IFR Très Intensif
Visi : 
Plafond : 
>= 8 km
>= 3000ft
5 à 8 km
1000 à 3000 ft
1500m à 5 km
500 à 1000 ft
800 à 1500m
200 à 500 ft
< 800m
< 200 ft
Symboles :   Orages  Brouillard  Fortes neiges  Fortes précipitations  Vent > 20 kt
SIGMETs :   Divers  Orages  Givrage  Turbulence  Onde Orograph.  Cendres Volcan.






- Altitude de l'aérodrome : 1682 ft
- Code IATA : VIT


LEVT - Vitoria Gasteiz

DERNIER METAR :
  • 202230Z 22018G30KT 9999 FEW025 SCT045 10/07 Q1004

METARs EXPIRÉS :
  • 202200Z 22015KT 190V250 9999 FEW020 SCT045 10/07 Q1004
  • 202130Z 22017G28KT 9999 FEW020 SCT035 10/06 Q1004
  • 202100Z 22022KT 9999 FEW020 BKN030 11/06 Q1003
  • 202030Z 22023KT 180V240 9999 FEW015 BKN030 10/06 Q1003
  • 202000Z 24010KT 200V280 9999 FEW015 BKN030 11/06 Q1004

TAF AMD TAF LEVT
Valide du 20 à 21h jusqu'au 21 à 18h UTC


202109Z 2021/2118 20009KT 9999 FEW020 BKN035 TX10/2114Z TN05/2107Z
TEMPO 2021/2024 24020KT
TEMPO 2021/2024 24015G25KT
PROB30
TEMPO 2021/2024 14012G22KT RA
TEMPO 2108/2118 24016G28KT
PROB40
TEMPO 2110/2116 20022G38KT



MET'MAP, la Météo Aéronautique d'un coup d'oeil ! - Copyright ORBIFLY Décembre 2007 - Disclaimer

ORBIFLY MET'MAP TEAM :

Programmation & Développement : Alexandra Zaïnal
Sur une idée originale de : Baudouin d'Aumeries
Assistance à la programmation : Marc-Olivier Méhu
Soutien technique & logistique : Manuel Goepfert

Contact : metmap@orbifly.com




SOURCES & CREDITS :

   NOAA